sensor_id;sensor_type;location;lat;lon;timestamp;P1;durP1;ratioP1;P2;durP2;ratioP2
3667;SDS011;24099;47.102;15.440;2023-07-29T00:02:10;1.70;;;1.10;;
3667;SDS011;24099;47.102;15.440;2023-07-29T00:04:37;1.92;;;1.25;;
3667;SDS011;24099;47.102;15.440;2023-07-29T00:07:05;4.35;;;1.23;;
3667;SDS011;24099;47.102;15.440;2023-07-29T00:09:32;1.17;;;1.00;;
3667;SDS011;24099;47.102;15.440;2023-07-29T00:12:00;0.82;;;0.82;;
3667;SDS011;24099;47.102;15.440;2023-07-29T00:14:28;2.70;;;1.00;;
3667;SDS011;24099;47.102;15.440;2023-07-29T00:16:55;2.03;;;1.15;;
3667;SDS011;24099;47.102;15.440;2023-07-29T00:19:24;1.75;;;0.88;;
3667;SDS011;24099;47.102;15.440;2023-07-29T00:21:53;1.33;;;0.93;;
3667;SDS011;24099;47.102;15.440;2023-07-29T00:24:21;1.27;;;1.00;;
3667;SDS011;24099;47.102;15.440;2023-07-29T00:26:48;1.20;;;1.10;;
3667;SDS011;24099;47.102;15.440;2023-07-29T00:29:16;1.15;;;1.05;;
3667;SDS011;24099;47.102;15.440;2023-07-29T00:31:43;1.65;;;1.10;;
3667;SDS011;24099;47.102;15.440;2023-07-29T00:34:13;1.60;;;1.30;;
3667;SDS011;24099;47.102;15.440;2023-07-29T00:36:45;2.22;;;1.20;;
3667;SDS011;24099;47.102;15.440;2023-07-29T00:39:12;3.95;;;1.38;;
3667;SDS011;24099;47.102;15.440;2023-07-29T00:41:40;1.13;;;1.02;;
3667;SDS011;24099;47.102;15.440;2023-07-29T00:44:07;0.93;;;0.85;;
3667;SDS011;24099;47.102;15.440;2023-07-29T00:46:35;0.85;;;0.85;;
3667;SDS011;24099;47.102;15.440;2023-07-29T00:49:04;1.00;;;0.93;;
3667;SDS011;24099;47.102;15.440;2023-07-29T00:51:32;2.22;;;1.13;;
3667;SDS011;24099;47.102;15.440;2023-07-29T00:54:01;1.33;;;1.08;;
3667;SDS011;24099;47.102;15.440;2023-07-29T00:56:28;1.17;;;0.90;;
3667;SDS011;24099;47.102;15.440;2023-07-29T00:58:56;1.00;;;1.00;;
3667;SDS011;24099;47.102;15.440;2023-07-29T01:01:27;1.52;;;1.00;;
3667;SDS011;24099;47.102;15.440;2023-07-29T01:03:55;0.98;;;0.88;;
3667;SDS011;24099;47.102;15.440;2023-07-29T01:06:23;2.10;;;0.85;;
3667;SDS011;24099;47.102;15.440;2023-07-29T01:09:02;2.65;;;1.00;;
3667;SDS011;24099;47.102;15.440;2023-07-29T01:11:33;3.08;;;1.30;;
3667;SDS011;24099;47.102;15.440;2023-07-29T01:14:10;0.90;;;0.90;;
3667;SDS011;24099;47.102;15.440;2023-07-29T01:16:50;2.00;;;1.00;;
3667;SDS011;24099;47.102;15.440;2023-07-29T01:19:26;1.15;;;1.02;;
3667;SDS011;24099;47.102;15.440;2023-07-29T01:22:08;1.92;;;0.98;;
3667;SDS011;24099;47.102;15.440;2023-07-29T01:24:39;3.83;;;1.10;;
3667;SDS011;24099;47.102;15.440;2023-07-29T01:27:06;1.85;;;1.05;;
3667;SDS011;24099;47.102;15.440;2023-07-29T01:29:34;2.63;;;1.20;;
3667;SDS011;24099;47.102;15.440;2023-07-29T01:32:04;1.45;;;0.98;;
3667;SDS011;24099;47.102;15.440;2023-07-29T01:34:39;2.05;;;1.10;;
3667;SDS011;24099;47.102;15.440;2023-07-29T01:37:15;3.35;;;1.23;;
3667;SDS011;24099;47.102;15.440;2023-07-29T01:39:51;3.00;;;1.60;;
3667;SDS011;24099;47.102;15.440;2023-07-29T01:42:23;1.23;;;1.00;;
3667;SDS011;24099;47.102;15.440;2023-07-29T01:44:52;1.27;;;1.02;;
3667;SDS011;24099;47.102;15.440;2023-07-29T01:47:20;3.70;;;0.90;;
3667;SDS011;24099;47.102;15.440;2023-07-29T01:49:48;4.25;;;1.30;;
3667;SDS011;24099;47.102;15.440;2023-07-29T01:52:16;3.67;;;1.00;;
3667;SDS011;24099;47.102;15.440;2023-07-29T01:54:43;0.95;;;0.93;;
3667;SDS011;24099;47.102;15.440;2023-07-29T01:57:12;1.27;;;1.17;;
3667;SDS011;24099;47.102;15.440;2023-07-29T01:59:40;1.25;;;1.10;;
3667;SDS011;24099;47.102;15.440;2023-07-29T02:02:07;1.52;;;0.98;;
3667;SDS011;24099;47.102;15.440;2023-07-29T02:04:35;0.98;;;0.95;;
3667;SDS011;24099;47.102;15.440;2023-07-29T02:07:03;6.13;;;1.20;;
3667;SDS011;24099;47.102;15.440;2023-07-29T02:09:31;3.25;;;1.00;;
3667;SDS011;24099;47.102;15.440;2023-07-29T02:11:58;0.88;;;0.80;;
3667;SDS011;24099;47.102;15.440;2023-07-29T02:14:37;1.65;;;0.90;;
3667;SDS011;24099;47.102;15.440;2023-07-29T02:17:05;6.38;;;1.27;;
3667;SDS011;24099;47.102;15.440;2023-07-29T02:19:34;2.97;;;1.25;;
3667;SDS011;24099;47.102;15.440;2023-07-29T02:22:01;1.08;;;0.80;;
3667;SDS011;24099;47.102;15.440;2023-07-29T02:24:29;2.63;;;1.00;;
3667;SDS011;24099;47.102;15.440;2023-07-29T02:26:57;1.95;;;0.95;;
3667;SDS011;24099;47.102;15.440;2023-07-29T02:29:25;3.72;;;1.10;;
3667;SDS011;24099;47.102;15.440;2023-07-29T02:31:54;1.08;;;0.93;;
3667;SDS011;24099;47.102;15.440;2023-07-29T02:34:22;1.65;;;1.08;;
3667;SDS011;24099;47.102;15.440;2023-07-29T02:36:50;1.20;;;1.10;;
3667;SDS011;24099;47.102;15.440;2023-07-29T02:39:17;1.20;;;1.10;;
3667;SDS011;24099;47.102;15.440;2023-07-29T02:41:45;3.53;;;1.10;;
3667;SDS011;24099;47.102;15.440;2023-07-29T02:44:12;1.10;;;1.00;;
3667;SDS011;24099;47.102;15.440;2023-07-29T02:46:40;1.45;;;1.17;;
3667;SDS011;24099;47.102;15.440;2023-07-29T02:49:09;1.52;;;0.98;;
3667;SDS011;24099;47.102;15.440;2023-07-29T02:51:37;1.00;;;0.90;;
3667;SDS011;24099;47.102;15.440;2023-07-29T02:54:04;3.63;;;0.90;;
3667;SDS011;24099;47.102;15.440;2023-07-29T02:56:32;1.50;;;1.20;;
3667;SDS011;24099;47.102;15.440;2023-07-29T02:58:59;2.00;;;1.30;;
3667;SDS011;24099;47.102;15.440;2023-07-29T03:01:28;3.47;;;1.05;;
3667;SDS011;24099;47.102;15.440;2023-07-29T03:03:55;4.35;;;1.10;;
3667;SDS011;24099;47.102;15.440;2023-07-29T03:06:24;1.25;;;1.15;;
3667;SDS011;24099;47.102;15.440;2023-07-29T03:08:52;1.35;;;1.13;;
3667;SDS011;24099;47.102;15.440;2023-07-29T03:11:19;1.23;;;0.90;;
3667;SDS011;24099;47.102;15.440;2023-07-29T03:13:47;1.38;;;1.10;;
3667;SDS011;24099;47.102;15.440;2023-07-29T03:16:15;2.10;;;1.00;;
3667;SDS011;24099;47.102;15.440;2023-07-29T03:18:52;2.33;;;1.23;;
3667;SDS011;24099;47.102;15.440;2023-07-29T03:21:19;2.95;;;1.25;;
3667;SDS011;24099;47.102;15.440;2023-07-29T03:23:48;0.93;;;0.93;;
3667;SDS011;24099;47.102;15.440;2023-07-29T03:26:16;2.22;;;1.00;;
3667;SDS011;24099;47.102;15.440;2023-07-29T03:28:43;1.27;;;1.17;;
3667;SDS011;24099;47.102;15.440;2023-07-29T03:31:11;1.20;;;1.10;;
3667;SDS011;24099;47.102;15.440;2023-07-29T03:33:39;1.38;;;1.10;;
3667;SDS011;24099;47.102;15.440;2023-07-29T03:36:06;1.33;;;1.23;;
3667;SDS011;24099;47.102;15.440;2023-07-29T03:38:34;1.13;;;1.05;;
3667;SDS011;24099;47.102;15.440;2023-07-29T03:41:07;1.23;;;1.00;;
3667;SDS011;24099;47.102;15.440;2023-07-29T03:43:34;1.00;;;0.90;;
3667;SDS011;24099;47.102;15.440;2023-07-29T03:46:02;1.75;;;1.20;;
3667;SDS011;24099;47.102;15.440;2023-07-29T03:48:31;1.20;;;1.10;;
3667;SDS011;24099;47.102;15.440;2023-07-29T03:50:59;3.15;;;0.98;;
3667;SDS011;24099;47.102;15.440;2023-07-29T03:53:27;2.38;;;1.10;;
3667;SDS011;24099;47.102;15.440;2023-07-29T03:55:54;1.88;;;1.10;;
3667;SDS011;24099;47.102;15.440;2023-07-29T03:58:23;1.20;;;1.08;;
3667;SDS011;24099;47.102;15.440;2023-07-29T04:00:51;1.02;;;0.93;;
3667;SDS011;24099;47.102;15.440;2023-07-29T04:03:19;2.63;;;1.30;;
3667;SDS011;24099;47.102;15.440;2023-07-29T04:05:47;1.10;;;0.90;;
3667;SDS011;24099;47.102;15.440;2023-07-29T04:08:15;2.22;;;1.05;;
3667;SDS011;24099;47.102;15.440;2023-07-29T04:10:43;2.38;;;1.20;;
3667;SDS011;24099;47.102;15.440;2023-07-29T04:13:10;1.73;;;1.33;;
3667;SDS011;24099;47.102;15.440;2023-07-29T04:15:39;1.17;;;1.08;;
3667;SDS011;24099;47.102;15.440;2023-07-29T04:18:07;2.10;;;1.17;;
3667;SDS011;24099;47.102;15.440;2023-07-29T04:20:34;1.15;;;0.90;;
3667;SDS011;24099;47.102;15.440;2023-07-29T04:23:02;1.70;;;1.20;;
3667;SDS011;24099;47.102;15.440;2023-07-29T04:25:30;1.23;;;1.10;;
3667;SDS011;24099;47.102;15.440;2023-07-29T04:27:57;1.70;;;1.30;;
3667;SDS011;24099;47.102;15.440;2023-07-29T04:30:25;1.63;;;1.20;;
3667;SDS011;24099;47.102;15.440;2023-07-29T04:32:54;1.25;;;1.05;;
3667;SDS011;24099;47.102;15.440;2023-07-29T04:35:21;2.20;;;1.15;;
3667;SDS011;24099;47.102;15.440;2023-07-29T04:37:49;1.25;;;1.08;;
3667;SDS011;24099;47.102;15.440;2023-07-29T04:40:16;1.17;;;1.00;;
3667;SDS011;24099;47.102;15.440;2023-07-29T04:42:44;1.95;;;1.17;;
3667;SDS011;24099;47.102;15.440;2023-07-29T04:45:11;2.25;;;1.33;;
3667;SDS011;24099;47.102;15.440;2023-07-29T04:47:39;1.65;;;1.10;;
3667;SDS011;24099;47.102;15.440;2023-07-29T04:50:09;2.85;;;1.08;;
3667;SDS011;24099;47.102;15.440;2023-07-29T04:52:36;0.77;;;0.77;;
3667;SDS011;24099;47.102;15.440;2023-07-29T04:55:04;1.58;;;1.10;;
3667;SDS011;24099;47.102;15.440;2023-07-29T04:57:32;3.05;;;1.75;;
3667;SDS011;24099;47.102;15.440;2023-07-29T05:00:00;1.10;;;1.00;;
3667;SDS011;24099;47.102;15.440;2023-07-29T05:02:28;2.42;;;1.15;;
3667;SDS011;24099;47.102;15.440;2023-07-29T05:04:56;1.15;;;1.05;;
3667;SDS011;24099;47.102;15.440;2023-07-29T05:07:25;1.33;;;1.20;;
3667;SDS011;24099;47.102;15.440;2023-07-29T05:09:52;3.25;;;1.20;;
3667;SDS011;24099;47.102;15.440;2023-07-29T05:12:20;1.67;;;1.27;;
3667;SDS011;24099;47.102;15.440;2023-07-29T05:14:48;1.33;;;1.23;;
3667;SDS011;24099;47.102;15.440;2023-07-29T05:17:15;1.20;;;1.10;;
3667;SDS011;24099;47.102;15.440;2023-07-29T05:19:43;1.55;;;1.38;;
3667;SDS011;24099;47.102;15.440;2023-07-29T05:22:10;1.30;;;1.08;;
3667;SDS011;24099;47.102;15.440;2023-07-29T05:24:39;1.20;;;1.08;;
3667;SDS011;24099;47.102;15.440;2023-07-29T05:27:11;1.25;;;1.15;;
3667;SDS011;24099;47.102;15.440;2023-07-29T05:29:39;2.05;;;1.38;;
3667;SDS011;24099;47.102;15.440;2023-07-29T05:32:07;1.90;;;1.30;;
3667;SDS011;24099;47.102;15.440;2023-07-29T05:34:34;2.40;;;1.30;;
3667;SDS011;24099;47.102;15.440;2023-07-29T05:37:08;2.17;;;1.45;;
3667;SDS011;24099;47.102;15.440;2023-07-29T05:39:36;0.98;;;0.93;;
3667;SDS011;24099;47.102;15.440;2023-07-29T05:42:05;2.35;;;1.30;;
3667;SDS011;24099;47.102;15.440;2023-07-29T05:44:33;1.83;;;1.35;;
3667;SDS011;24099;47.102;15.440;2023-07-29T05:47:01;1.25;;;1.15;;
3667;SDS011;24099;47.102;15.440;2023-07-29T05:49:29;1.10;;;1.00;;
3667;SDS011;24099;47.102;15.440;2023-07-29T05:51:56;1.45;;;1.17;;
3667;SDS011;24099;47.102;15.440;2023-07-29T05:54:25;1.38;;;1.27;;
3667;SDS011;24099;47.102;15.440;2023-07-29T05:56:52;1.42;;;1.20;;
3667;SDS011;24099;47.102;15.440;2023-07-29T05:59:21;2.25;;;1.20;;
3667;SDS011;24099;47.102;15.440;2023-07-29T06:01:49;2.15;;;1.20;;
3667;SDS011;24099;47.102;15.440;2023-07-29T06:04:17;1.90;;;1.27;;
3667;SDS011;24099;47.102;15.440;2023-07-29T06:06:44;3.13;;;1.35;;
3667;SDS011;24099;47.102;15.440;2023-07-29T06:09:12;1.25;;;1.08;;
3667;SDS011;24099;47.102;15.440;2023-07-29T06:11:39;1.85;;;1.27;;
3667;SDS011;24099;47.102;15.440;2023-07-29T06:14:07;3.75;;;1.50;;
3667;SDS011;24099;47.102;15.440;2023-07-29T06:16:36;3.80;;;1.58;;
3667;SDS011;24099;47.102;15.440;2023-07-29T06:19:03;1.60;;;1.10;;
3667;SDS011;24099;47.102;15.440;2023-07-29T06:21:34;1.55;;;1.20;;
3667;SDS011;24099;47.102;15.440;2023-07-29T06:24:01;2.55;;;1.33;;
3667;SDS011;24099;47.102;15.440;2023-07-29T06:26:29;1.77;;;1.30;;
3667;SDS011;24099;47.102;15.440;2023-07-29T06:28:56;2.85;;;1.58;;
3667;SDS011;24099;47.102;15.440;2023-07-29T06:31:24;3.80;;;1.65;;
3667;SDS011;24099;47.102;15.440;2023-07-29T06:33:53;5.28;;;1.60;;
3667;SDS011;24099;47.102;15.440;2023-07-29T06:36:21;2.97;;;1.40;;
3667;SDS011;24099;47.102;15.440;2023-07-29T06:38:48;5.50;;;1.50;;
3667;SDS011;24099;47.102;15.440;2023-07-29T06:41:16;1.60;;;1.42;;
3667;SDS011;24099;47.102;15.440;2023-07-29T06:43:43;2.35;;;1.35;;
3667;SDS011;24099;47.102;15.440;2023-07-29T06:46:11;2.47;;;1.27;;
3667;SDS011;24099;47.102;15.440;2023-07-29T06:48:38;2.67;;;1.50;;
3667;SDS011;24099;47.102;15.440;2023-07-29T06:51:07;2.20;;;1.33;;
3667;SDS011;24099;47.102;15.440;2023-07-29T06:53:34;4.18;;;1.58;;
3667;SDS011;24099;47.102;15.440;2023-07-29T06:56:02;2.97;;;1.50;;
3667;SDS011;24099;47.102;15.440;2023-07-29T06:58:30;2.20;;;1.40;;
3667;SDS011;24099;47.102;15.440;2023-07-29T07:00:58;2.55;;;1.65;;
3667;SDS011;24099;47.102;15.440;2023-07-29T07:03:25;2.72;;;1.60;;
3667;SDS011;24099;47.102;15.440;2023-07-29T07:05:53;3.00;;;1.40;;
3667;SDS011;24099;47.102;15.440;2023-07-29T07:08:24;2.30;;;1.48;;
3667;SDS011;24099;47.102;15.440;2023-07-29T07:10:51;3.08;;;1.63;;
3667;SDS011;24099;47.102;15.440;2023-07-29T07:13:19;1.67;;;1.42;;
3667;SDS011;24099;47.102;15.440;2023-07-29T07:15:46;2.63;;;1.20;;
3667;SDS011;24099;47.102;15.440;2023-07-29T07:18:14;2.53;;;1.58;;
3667;SDS011;24099;47.102;15.440;2023-07-29T07:20:41;1.75;;;1.33;;
3667;SDS011;24099;47.102;15.440;2023-07-29T07:23:09;2.50;;;1.38;;
3667;SDS011;24099;47.102;15.440;2023-07-29T07:25:39;1.23;;;1.05;;
3667;SDS011;24099;47.102;15.440;2023-07-29T07:28:07;1.40;;;1.30;;
3667;SDS011;24099;47.102;15.440;2023-07-29T07:30:35;2.97;;;1.20;;
3667;SDS011;24099;47.102;15.440;2023-07-29T07:33:07;3.70;;;1.80;;
3667;SDS011;24099;47.102;15.440;2023-07-29T07:35:34;1.45;;;1.15;;
3667;SDS011;24099;47.102;15.440;2023-07-29T07:38:02;1.38;;;1.10;;
3667;SDS011;24099;47.102;15.440;2023-07-29T07:40:32;1.80;;;1.27;;
3667;SDS011;24099;47.102;15.440;2023-07-29T07:43:02;2.60;;;1.50;;
3667;SDS011;24099;47.102;15.440;2023-07-29T07:45:29;1.42;;;1.08;;
3667;SDS011;24099;47.102;15.440;2023-07-29T07:47:59;1.00;;;0.90;;
3667;SDS011;24099;47.102;15.440;2023-07-29T07:50:29;1.40;;;1.10;;
3667;SDS011;24099;47.102;15.440;2023-07-29T07:52:57;1.88;;;1.27;;
3667;SDS011;24099;47.102;15.440;2023-07-29T07:55:24;2.70;;;1.30;;
3667;SDS011;24099;47.102;15.440;2023-07-29T07:57:52;2.33;;;1.67;;
3667;SDS011;24099;47.102;15.440;2023-07-29T08:00:21;3.80;;;1.30;;
3667;SDS011;24099;47.102;15.440;2023-07-29T08:02:49;3.30;;;1.20;;
3667;SDS011;24099;47.102;15.440;2023-07-29T08:05:16;1.10;;;1.00;;
3667;SDS011;24099;47.102;15.440;2023-07-29T08:07:44;2.15;;;1.20;;
3667;SDS011;24099;47.102;15.440;2023-07-29T08:10:12;1.63;;;1.10;;
3667;SDS011;24099;47.102;15.440;2023-07-29T08:12:39;1.75;;;1.00;;
3667;SDS011;24099;47.102;15.440;2023-07-29T08:15:07;1.98;;;1.23;;
3667;SDS011;24099;47.102;15.440;2023-07-29T08:17:36;1.40;;;1.20;;
3667;SDS011;24099;47.102;15.440;2023-07-29T08:20:04;2.03;;;1.20;;
3667;SDS011;24099;47.102;15.440;2023-07-29T08:22:32;2.85;;;1.08;;
3667;SDS011;24099;47.102;15.440;2023-07-29T08:25:00;2.95;;;1.35;;
3667;SDS011;24099;47.102;15.440;2023-07-29T08:27:27;1.52;;;1.23;;
3667;SDS011;24099;47.102;15.440;2023-07-29T08:29:55;2.38;;;1.30;;
3667;SDS011;24099;47.102;15.440;2023-07-29T08:32:22;2.08;;;1.15;;
3667;SDS011;24099;47.102;15.440;2023-07-29T08:34:51;1.67;;;1.30;;
3667;SDS011;24099;47.102;15.440;2023-07-29T08:37:19;1.05;;;1.02;;
3667;SDS011;24099;47.102;15.440;2023-07-29T08:39:47;2.40;;;1.25;;
3667;SDS011;24099;47.102;15.440;2023-07-29T08:42:14;1.58;;;1.00;;
3667;SDS011;24099;47.102;15.440;2023-07-29T08:44:44;1.30;;;1.20;;
3667;SDS011;24099;47.102;15.440;2023-07-29T08:47:14;1.50;;;1.20;;
3667;SDS011;24099;47.102;15.440;2023-07-29T08:49:41;1.30;;;1.10;;
3667;SDS011;24099;47.102;15.440;2023-07-29T08:52:11;1.90;;;0.98;;
3667;SDS011;24099;47.102;15.440;2023-07-29T08:54:40;3.08;;;1.10;;
3667;SDS011;24099;47.102;15.440;2023-07-29T08:57:08;1.52;;;1.20;;
3667;SDS011;24099;47.102;15.440;2023-07-29T08:59:36;1.42;;;1.20;;
3667;SDS011;24099;47.102;15.440;2023-07-29T09:02:05;2.78;;;1.00;;
3667;SDS011;24099;47.102;15.440;2023-07-29T09:04:33;5.90;;;1.40;;
3667;SDS011;24099;47.102;15.440;2023-07-29T09:07:00;1.02;;;0.93;;
3667;SDS011;24099;47.102;15.440;2023-07-29T09:09:30;2.10;;;1.10;;
3667;SDS011;24099;47.102;15.440;2023-07-29T09:11:58;2.20;;;1.30;;
3667;SDS011;24099;47.102;15.440;2023-07-29T09:14:25;1.05;;;0.95;;
3667;SDS011;24099;47.102;15.440;2023-07-29T09:16:54;1.50;;;0.90;;
3667;SDS011;24099;47.102;15.440;2023-07-29T09:19:24;1.48;;;1.05;;
3667;SDS011;24099;47.102;15.440;2023-07-29T09:21:52;1.13;;;1.00;;
3667;SDS011;24099;47.102;15.440;2023-07-29T09:24:20;1.65;;;1.00;;
3667;SDS011;24099;47.102;15.440;2023-07-29T09:26:49;1.55;;;0.90;;
3667;SDS011;24099;47.102;15.440;2023-07-29T09:29:21;1.17;;;0.90;;
3667;SDS011;24099;47.102;15.440;2023-07-29T09:31:49;1.10;;;1.00;;
3667;SDS011;24099;47.102;15.440;2023-07-29T09:34:17;1.75;;;1.00;;
3667;SDS011;24099;47.102;15.440;2023-07-29T09:36:45;1.45;;;1.08;;
3667;SDS011;24099;47.102;15.440;2023-07-29T09:39:14;1.15;;;1.05;;
3667;SDS011;24099;47.102;15.440;2023-07-29T09:41:41;2.40;;;1.08;;
3667;SDS011;24099;47.102;15.440;2023-07-29T09:44:16;8.45;;;1.50;;
3667;SDS011;24099;47.102;15.440;2023-07-29T09:46:45;1.10;;;1.00;;
3667;SDS011;24099;47.102;15.440;2023-07-29T09:49:13;1.67;;;0.95;;
3667;SDS011;24099;47.102;15.440;2023-07-29T09:51:40;1.20;;;1.10;;
3667;SDS011;24099;47.102;15.440;2023-07-29T09:54:08;1.55;;;0.98;;
3667;SDS011;24099;47.102;15.440;2023-07-29T09:56:39;1.15;;;1.00;;
3667;SDS011;24099;47.102;15.440;2023-07-29T09:59:08;1.48;;;0.88;;
3667;SDS011;24099;47.102;15.440;2023-07-29T10:01:37;1.52;;;1.02;;
3667;SDS011;24099;47.102;15.440;2023-07-29T10:04:06;2.22;;;0.85;;
3667;SDS011;24099;47.102;15.440;2023-07-29T10:06:35;1.58;;;1.13;;
3667;SDS011;24099;47.102;15.440;2023-07-29T10:09:03;1.00;;;0.90;;
3667;SDS011;24099;47.102;15.440;2023-07-29T10:11:31;1.55;;;0.95;;
3667;SDS011;24099;47.102;15.440;2023-07-29T10:14:00;0.85;;;0.77;;
3667;SDS011;24099;47.102;15.440;2023-07-29T10:16:28;2.20;;;1.00;;
3667;SDS011;24099;47.102;15.440;2023-07-29T10:18:57;1.42;;;0.95;;
3667;SDS011;24099;47.102;15.440;2023-07-29T10:21:25;1.27;;;1.00;;
3667;SDS011;24099;47.102;15.440;2023-07-29T10:23:55;1.40;;;1.08;;
3667;SDS011;24099;47.102;15.440;2023-07-29T10:26:25;1.30;;;0.88;;
3667;SDS011;24099;47.102;15.440;2023-07-29T10:28:56;2.10;;;1.00;;
3667;SDS011;24099;47.102;15.440;2023-07-29T10:31:30;5.47;;;0.93;;
3667;SDS011;24099;47.102;15.440;2023-07-29T10:34:00;0.73;;;0.73;;
3667;SDS011;24099;47.102;15.440;2023-07-29T10:36:28;1.20;;;1.02;;
3667;SDS011;24099;47.102;15.440;2023-07-29T10:38:55;1.48;;;1.00;;
3667;SDS011;24099;47.102;15.440;2023-07-29T10:41:23;0.88;;;0.88;;
3667;SDS011;24099;47.102;15.440;2023-07-29T10:47:14;1.40;;;1.30;;
3667;SDS011;24099;47.102;15.440;2023-07-29T10:49:44;1.63;;;1.10;;
3667;SDS011;24099;47.102;15.440;2023-07-29T10:52:14;1.40;;;0.88;;
3667;SDS011;24099;47.102;15.440;2023-07-29T10:54:43;0.75;;;0.75;;
3667;SDS011;24099;47.102;15.440;2023-07-29T10:57:14;0.80;;;0.80;;
3667;SDS011;24099;47.102;15.440;2023-07-29T10:59:56;1.30;;;0.98;;
3667;SDS011;24099;47.102;15.440;2023-07-29T11:02:28;1.17;;;0.90;;
3667;SDS011;24099;47.102;15.440;2023-07-29T11:04:58;0.88;;;0.88;;
3667;SDS011;24099;47.102;15.440;2023-07-29T11:07:31;0.98;;;0.90;;
3667;SDS011;24099;47.102;15.440;2023-07-29T11:10:09;1.33;;;1.15;;
3667;SDS011;24099;47.102;15.440;2023-07-29T11:12:42;1.27;;;0.98;;
3667;SDS011;24099;47.102;15.440;2023-07-29T11:15:15;1.10;;;0.98;;
3667;SDS011;24099;47.102;15.440;2023-07-29T11:17:46;1.27;;;1.00;;
3667;SDS011;24099;47.102;15.440;2023-07-29T11:20:16;1.33;;;0.90;;
3667;SDS011;24099;47.102;15.440;2023-07-29T11:22:45;1.50;;;0.90;;
3667;SDS011;24099;47.102;15.440;2023-07-29T11:25:13;1.95;;;0.90;;
3667;SDS011;24099;47.102;15.440;2023-07-29T11:27:41;0.98;;;0.88;;
3667;SDS011;24099;47.102;15.440;2023-07-29T11:30:10;1.10;;;0.90;;
3667;SDS011;24099;47.102;15.440;2023-07-29T11:32:39;1.27;;;0.70;;
3667;SDS011;24099;47.102;15.440;2023-07-29T11:35:08;0.80;;;0.80;;
3667;SDS011;24099;47.102;15.440;2023-07-29T11:37:39;1.67;;;0.80;;
3667;SDS011;24099;47.102;15.440;2023-07-29T11:40:08;0.75;;;0.75;;
3667;SDS011;24099;47.102;15.440;2023-07-29T11:42:36;1.10;;;1.00;;
3667;SDS011;24099;47.102;15.440;2023-07-29T11:45:04;0.80;;;0.80;;
3667;SDS011;24099;47.102;15.440;2023-07-29T11:47:33;0.98;;;0.88;;
3667;SDS011;24099;47.102;15.440;2023-07-29T11:50:02;0.68;;;0.60;;
3667;SDS011;24099;47.102;15.440;2023-07-29T11:52:31;1.23;;;0.70;;
3667;SDS011;24099;47.102;15.440;2023-07-29T11:55:01;0.80;;;0.80;;
3667;SDS011;24099;47.102;15.440;2023-07-29T11:57:29;0.80;;;0.80;;
3667;SDS011;24099;47.102;15.440;2023-07-29T11:59:57;0.90;;;0.90;;
3667;SDS011;24099;47.102;15.440;2023-07-29T12:02:25;0.60;;;0.60;;
3667;SDS011;24099;47.102;15.440;2023-07-29T12:04:53;0.60;;;0.60;;
3667;SDS011;24099;47.102;15.440;2023-07-29T12:07:22;1.65;;;0.82;;
3667;SDS011;24099;47.102;15.440;2023-07-29T12:09:50;0.77;;;0.77;;
3667;SDS011;24099;47.102;15.440;2023-07-29T12:12:19;1.05;;;0.95;;
3667;SDS011;24099;47.102;15.440;2023-07-29T12:14:49;0.98;;;0.93;;
3667;SDS011;24099;47.102;15.440;2023-07-29T12:17:16;1.52;;;0.80;;
3667;SDS011;24099;47.102;15.440;2023-07-29T12:19:45;1.08;;;0.90;;
3667;SDS011;24099;47.102;15.440;2023-07-29T12:22:17;1.52;;;0.80;;
3667;SDS011;24099;47.102;15.440;2023-07-29T12:24:45;0.80;;;0.80;;
3667;SDS011;24099;47.102;15.440;2023-07-29T12:27:13;2.00;;;0.90;;
3667;SDS011;24099;47.102;15.440;2023-07-29T12:29:43;0.73;;;0.73;;
3667;SDS011;24099;47.102;15.440;2023-07-29T12:32:13;1.02;;;0.98;;
3667;SDS011;24099;47.102;15.440;2023-07-29T12:34:41;1.45;;;0.70;;
3667;SDS011;24099;47.102;15.440;2023-07-29T12:37:08;1.40;;;0.80;;
3667;SDS011;24099;47.102;15.440;2023-07-29T12:39:39;1.20;;;0.80;;
3667;SDS011;24099;47.102;15.440;2023-07-29T12:42:07;0.95;;;0.80;;
3667;SDS011;24099;47.102;15.440;2023-07-29T12:44:35;0.80;;;0.80;;
3667;SDS011;24099;47.102;15.440;2023-07-29T12:47:05;0.90;;;0.80;;
3667;SDS011;24099;47.102;15.440;2023-07-29T12:49:36;1.08;;;0.90;;
3667;SDS011;24099;47.102;15.440;2023-07-29T12:52:04;0.95;;;0.80;;
3667;SDS011;24099;47.102;15.440;2023-07-29T12:54:32;1.38;;;0.70;;
3667;SDS011;24099;47.102;15.440;2023-07-29T12:56:59;1.35;;;0.70;;
3667;SDS011;24099;47.102;15.440;2023-07-29T12:59:27;1.52;;;0.88;;
3667;SDS011;24099;47.102;15.440;2023-07-29T13:01:54;1.02;;;0.80;;
3667;SDS011;24099;47.102;15.440;2023-07-29T13:04:23;0.82;;;0.75;;
3667;SDS011;24099;47.102;15.440;2023-07-29T13:06:51;0.95;;;0.80;;
3667;SDS011;24099;47.102;15.440;2023-07-29T13:09:18;0.80;;;0.80;;
3667;SDS011;24099;47.102;15.440;2023-07-29T13:11:46;3.30;;;0.80;;
3667;SDS011;24099;47.102;15.440;2023-07-29T13:14:13;3.85;;;1.30;;
3667;SDS011;24099;47.102;15.440;2023-07-29T13:16:41;2.53;;;0.80;;
3667;SDS011;24099;47.102;15.440;2023-07-29T13:19:08;1.10;;;1.00;;
3667;SDS011;24099;47.102;15.440;2023-07-29T13:21:37;1.02;;;0.80;;
3667;SDS011;24099;47.102;15.440;2023-07-29T13:24:05;0.75;;;0.75;;
3667;SDS011;24099;47.102;15.440;2023-07-29T13:26:32;0.68;;;0.68;;
3667;SDS011;24099;47.102;15.440;2023-07-29T13:29:01;0.70;;;0.70;;
3667;SDS011;24099;47.102;15.440;2023-07-29T13:31:29;1.95;;;0.60;;
3667;SDS011;24099;47.102;15.440;2023-07-29T13:33:57;0.60;;;0.60;;
3667;SDS011;24099;47.102;15.440;2023-07-29T13:36:24;0.75;;;0.68;;
3667;SDS011;24099;47.102;15.440;2023-07-29T13:38:53;0.75;;;0.68;;
3667;SDS011;24099;47.102;15.440;2023-07-29T13:41:21;0.65;;;0.65;;
3667;SDS011;24099;47.102;15.440;2023-07-29T13:43:48;1.05;;;0.70;;
3667;SDS011;24099;47.102;15.440;2023-07-29T13:46:16;0.40;;;0.40;;
3667;SDS011;24099;47.102;15.440;2023-07-29T13:48:46;0.70;;;0.60;;
3667;SDS011;24099;47.102;15.440;2023-07-29T13:51:14;0.77;;;0.77;;
3667;SDS011;24099;47.102;15.440;2023-07-29T13:53:41;0.65;;;0.65;;
3667;SDS011;24099;47.102;15.440;2023-07-29T13:56:10;0.95;;;0.88;;
3667;SDS011;24099;47.102;15.440;2023-07-29T13:58:39;0.93;;;0.90;;
3667;SDS011;24099;47.102;15.440;2023-07-29T14:01:07;1.30;;;0.75;;
3667;SDS011;24099;47.102;15.440;2023-07-29T14:03:34;1.20;;;1.00;;
3667;SDS011;24099;47.102;15.440;2023-07-29T14:06:02;2.22;;;0.80;;
3667;SDS011;24099;47.102;15.440;2023-07-29T14:08:29;1.27;;;0.75;;
3667;SDS011;24099;47.102;15.440;2023-07-29T14:10:57;0.77;;;0.75;;
3667;SDS011;24099;47.102;15.440;2023-07-29T14:13:26;0.95;;;0.90;;
3667;SDS011;24099;47.102;15.440;2023-07-29T14:15:53;1.00;;;0.80;;
3667;SDS011;24099;47.102;15.440;2023-07-29T14:18:21;0.82;;;0.82;;
3667;SDS011;24099;47.102;15.440;2023-07-29T14:20:48;0.88;;;0.70;;
3667;SDS011;24099;47.102;15.440;2023-07-29T14:23:16;0.80;;;0.80;;
3667;SDS011;24099;47.102;15.440;2023-07-29T14:25:44;2.53;;;1.05;;
3667;SDS011;24099;47.102;15.440;2023-07-29T14:28:13;0.70;;;0.70;;
3667;SDS011;24099;47.102;15.440;2023-07-29T14:30:42;0.90;;;0.90;;
3667;SDS011;24099;47.102;15.440;2023-07-29T14:33:10;1.20;;;0.90;;
3667;SDS011;24099;47.102;15.440;2023-07-29T14:35:38;0.73;;;0.73;;
3667;SDS011;24099;47.102;15.440;2023-07-29T14:38:05;1.23;;;1.08;;
3667;SDS011;24099;47.102;15.440;2023-07-29T14:40:33;1.02;;;0.90;;
3667;SDS011;24099;47.102;15.440;2023-07-29T14:43:00;1.48;;;1.17;;
3667;SDS011;24099;47.102;15.440;2023-07-29T14:45:28;1.55;;;1.00;;
3667;SDS011;24099;47.102;15.440;2023-07-29T14:47:57;1.33;;;1.23;;
3667;SDS011;24099;47.102;15.440;2023-07-29T14:50:24;0.95;;;0.95;;
3667;SDS011;24099;47.102;15.440;2023-07-29T14:52:52;1.50;;;0.90;;
3667;SDS011;24099;47.102;15.440;2023-07-29T14:55:19;1.15;;;1.08;;
3667;SDS011;24099;47.102;15.440;2023-07-29T14:57:47;0.80;;;0.80;;
3667;SDS011;24099;47.102;15.440;2023-07-29T15:00:15;4.55;;;1.10;;